sensor_id;sensor_type;location;lat;lon;timestamp;P1;durP1;ratioP1;P2;durP2;ratioP2
45103;SDS011;30865;51.288;4.572;2023-08-06T00:02:04;8.45;;;5.70;;
45103;SDS011;30865;51.288;4.572;2023-08-06T00:04:29;9.13;;;6.22;;
45103;SDS011;30865;51.288;4.572;2023-08-06T00:06:55;10.73;;;6.43;;
45103;SDS011;30865;51.288;4.572;2023-08-06T00:09:20;11.02;;;6.45;;
45103;SDS011;30865;51.288;4.572;2023-08-06T00:11:46;8.60;;;6.47;;
45103;SDS011;30865;51.288;4.572;2023-08-06T00:14:12;11.93;;;8.00;;
45103;SDS011;30865;51.288;4.572;2023-08-06T00:16:40;11.55;;;7.88;;
45103;SDS011;30865;51.288;4.572;2023-08-06T00:19:07;11.25;;;7.32;;
45103;SDS011;30865;51.288;4.572;2023-08-06T00:21:33;9.35;;;7.18;;
45103;SDS011;30865;51.288;4.572;2023-08-06T00:23:58;11.85;;;8.95;;
45103;SDS011;30865;51.288;4.572;2023-08-06T00:26:24;12.18;;;7.38;;
45103;SDS011;30865;51.288;4.572;2023-08-06T00:28:49;13.82;;;7.95;;
45103;SDS011;30865;51.288;4.572;2023-08-06T00:31:15;17.38;;;7.82;;
45103;SDS011;30865;51.288;4.572;2023-08-06T00:33:40;11.45;;;8.00;;
45103;SDS011;30865;51.288;4.572;2023-08-06T00:36:06;12.48;;;7.30;;
45103;SDS011;30865;51.288;4.572;2023-08-06T00:38:31;13.90;;;8.18;;
45103;SDS011;30865;51.288;4.572;2023-08-06T00:40:57;13.27;;;9.10;;
45103;SDS011;30865;51.288;4.572;2023-08-06T00:43:22;13.75;;;8.57;;
45103;SDS011;30865;51.288;4.572;2023-08-06T00:45:48;13.20;;;7.95;;
45103;SDS011;30865;51.288;4.572;2023-08-06T00:48:13;13.02;;;8.85;;
45103;SDS011;30865;51.288;4.572;2023-08-06T00:50:39;14.00;;;8.85;;
45103;SDS011;30865;51.288;4.572;2023-08-06T00:53:05;13.57;;;8.57;;
45103;SDS011;30865;51.288;4.572;2023-08-06T00:55:32;14.55;;;9.20;;
45103;SDS011;30865;51.288;4.572;2023-08-06T00:58:01;14.10;;;9.20;;
45103;SDS011;30865;51.288;4.572;2023-08-06T01:00:26;14.93;;;9.60;;
45103;SDS011;30865;51.288;4.572;2023-08-06T01:02:53;12.77;;;9.02;;
45103;SDS011;30865;51.288;4.572;2023-08-06T01:05:20;11.23;;;8.05;;
45103;SDS011;30865;51.288;4.572;2023-08-06T01:07:51;11.70;;;7.93;;
45103;SDS011;30865;51.288;4.572;2023-08-06T01:13:38;12.75;;;8.10;;
45103;SDS011;30865;51.288;4.572;2023-08-06T01:16:17;13.85;;;8.18;;
45103;SDS011;30865;51.288;4.572;2023-08-06T01:18:46;12.57;;;7.35;;
45103;SDS011;30865;51.288;4.572;2023-08-06T01:21:14;13.88;;;8.40;;
45103;SDS011;30865;51.288;4.572;2023-08-06T01:23:41;10.50;;;6.93;;
45103;SDS011;30865;51.288;4.572;2023-08-06T01:26:14;12.38;;;7.50;;
45103;SDS011;30865;51.288;4.572;2023-08-06T01:28:44;9.93;;;7.40;;
45103;SDS011;30865;51.288;4.572;2023-08-06T01:31:26;9.95;;;7.03;;
45103;SDS011;30865;51.288;4.572;2023-08-06T01:33:56;9.15;;;6.57;;
45103;SDS011;30865;51.288;4.572;2023-08-06T01:36:24;9.85;;;6.35;;
45103;SDS011;30865;51.288;4.572;2023-08-06T01:38:51;9.02;;;6.55;;
45103;SDS011;30865;51.288;4.572;2023-08-06T01:41:17;11.27;;;6.85;;
45103;SDS011;30865;51.288;4.572;2023-08-06T01:43:43;10.73;;;7.47;;
45103;SDS011;30865;51.288;4.572;2023-08-06T01:46:09;9.35;;;6.55;;
45103;SDS011;30865;51.288;4.572;2023-08-06T01:48:34;12.35;;;8.10;;
45103;SDS011;30865;51.288;4.572;2023-08-06T01:51:00;13.02;;;6.38;;
45103;SDS011;30865;51.288;4.572;2023-08-06T01:53:25;12.02;;;7.05;;
45103;SDS011;30865;51.288;4.572;2023-08-06T01:55:51;9.07;;;6.13;;
45103;SDS011;30865;51.288;4.572;2023-08-06T01:58:16;7.95;;;4.82;;
45103;SDS011;30865;51.288;4.572;2023-08-06T02:00:42;8.27;;;5.05;;
45103;SDS011;30865;51.288;4.572;2023-08-06T02:03:07;9.38;;;5.25;;
45103;SDS011;30865;51.288;4.572;2023-08-06T02:05:33;7.32;;;4.88;;
45103;SDS011;30865;51.288;4.572;2023-08-06T02:07:58;7.80;;;3.80;;
45103;SDS011;30865;51.288;4.572;2023-08-06T02:10:24;4.88;;;3.50;;
45103;SDS011;30865;51.288;4.572;2023-08-06T02:12:49;6.72;;;4.03;;
45103;SDS011;30865;51.288;4.572;2023-08-06T02:15:15;11.90;;;4.47;;
45103;SDS011;30865;51.288;4.572;2023-08-06T02:17:40;9.70;;;5.03;;
45103;SDS011;30865;51.288;4.572;2023-08-06T02:20:06;6.65;;;4.40;;
45103;SDS011;30865;51.288;4.572;2023-08-06T02:22:32;6.70;;;4.85;;
45103;SDS011;30865;51.288;4.572;2023-08-06T02:24:58;6.03;;;4.88;;
45103;SDS011;30865;51.288;4.572;2023-08-06T02:27:24;7.20;;;3.97;;
45103;SDS011;30865;51.288;4.572;2023-08-06T02:29:49;7.20;;;4.22;;
45103;SDS011;30865;51.288;4.572;2023-08-06T02:32:15;4.80;;;3.10;;
45103;SDS011;30865;51.288;4.572;2023-08-06T02:34:40;4.03;;;2.83;;
45103;SDS011;30865;51.288;4.572;2023-08-06T02:37:06;4.88;;;2.10;;
45103;SDS011;30865;51.288;4.572;2023-08-06T02:39:32;3.03;;;2.47;;
45103;SDS011;30865;51.288;4.572;2023-08-06T02:41:59;3.05;;;2.72;;
45103;SDS011;30865;51.288;4.572;2023-08-06T02:44:27;3.67;;;2.00;;
45103;SDS011;30865;51.288;4.572;2023-08-06T02:46:53;4.10;;;2.22;;
45103;SDS011;30865;51.288;4.572;2023-08-06T02:49:18;2.63;;;2.42;;
45103;SDS011;30865;51.288;4.572;2023-08-06T02:51:46;4.30;;;2.15;;
45103;SDS011;30865;51.288;4.572;2023-08-06T02:54:12;2.38;;;1.98;;
45103;SDS011;30865;51.288;4.572;2023-08-06T02:56:37;3.50;;;2.03;;
45103;SDS011;30865;51.288;4.572;2023-08-06T02:59:03;3.30;;;2.10;;
45103;SDS011;30865;51.288;4.572;2023-08-06T03:01:28;2.08;;;1.88;;
45103;SDS011;30865;51.288;4.572;2023-08-06T03:03:54;5.78;;;2.17;;
45103;SDS011;30865;51.288;4.572;2023-08-06T03:06:19;3.58;;;2.47;;
45103;SDS011;30865;51.288;4.572;2023-08-06T03:08:45;3.83;;;1.95;;
45103;SDS011;30865;51.288;4.572;2023-08-06T03:11:10;3.05;;;1.77;;
45103;SDS011;30865;51.288;4.572;2023-08-06T03:13:36;3.05;;;2.28;;
45103;SDS011;30865;51.288;4.572;2023-08-06T03:16:01;3.45;;;2.30;;
45103;SDS011;30865;51.288;4.572;2023-08-06T03:18:27;3.58;;;1.77;;
45103;SDS011;30865;51.288;4.572;2023-08-06T03:20:53;2.13;;;1.70;;
45103;SDS011;30865;51.288;4.572;2023-08-06T03:23:18;4.43;;;2.35;;
45103;SDS011;30865;51.288;4.572;2023-08-06T03:25:44;2.67;;;1.88;;
45103;SDS011;30865;51.288;4.572;2023-08-06T03:28:10;3.10;;;2.05;;
45103;SDS011;30865;51.288;4.572;2023-08-06T03:30:35;3.55;;;1.75;;
45103;SDS011;30865;51.288;4.572;2023-08-06T03:33:01;2.80;;;2.00;;
45103;SDS011;30865;51.288;4.572;2023-08-06T03:35:27;2.80;;;1.92;;
45103;SDS011;30865;51.288;4.572;2023-08-06T03:37:52;3.60;;;1.98;;
45103;SDS011;30865;51.288;4.572;2023-08-06T03:40:18;4.85;;;2.40;;
45103;SDS011;30865;51.288;4.572;2023-08-06T03:42:43;3.00;;;1.88;;
45103;SDS011;30865;51.288;4.572;2023-08-06T03:45:12;1.98;;;1.58;;
45103;SDS011;30865;51.288;4.572;2023-08-06T03:47:37;3.42;;;2.60;;
45103;SDS011;30865;51.288;4.572;2023-08-06T03:50:03;4.72;;;1.92;;
45103;SDS011;30865;51.288;4.572;2023-08-06T03:52:30;4.38;;;2.00;;
45103;SDS011;30865;51.288;4.572;2023-08-06T03:54:55;2.92;;;1.63;;
45103;SDS011;30865;51.288;4.572;2023-08-06T03:57:21;2.60;;;2.08;;
45103;SDS011;30865;51.288;4.572;2023-08-06T03:59:46;2.72;;;1.88;;
45103;SDS011;30865;51.288;4.572;2023-08-06T04:02:12;2.40;;;1.63;;
45103;SDS011;30865;51.288;4.572;2023-08-06T04:04:37;2.72;;;2.05;;
45103;SDS011;30865;51.288;4.572;2023-08-06T04:07:03;2.90;;;2.42;;
45103;SDS011;30865;51.288;4.572;2023-08-06T04:09:29;2.47;;;1.77;;
45103;SDS011;30865;51.288;4.572;2023-08-06T04:11:54;4.57;;;1.70;;
45103;SDS011;30865;51.288;4.572;2023-08-06T04:14:20;3.58;;;1.95;;
45103;SDS011;30865;51.288;4.572;2023-08-06T04:16:46;2.35;;;1.73;;
45103;SDS011;30865;51.288;4.572;2023-08-06T04:19:11;2.97;;;1.55;;
45103;SDS011;30865;51.288;4.572;2023-08-06T04:21:37;2.78;;;2.30;;
45103;SDS011;30865;51.288;4.572;2023-08-06T04:24:02;4.68;;;2.00;;
45103;SDS011;30865;51.288;4.572;2023-08-06T04:26:28;5.68;;;1.80;;
45103;SDS011;30865;51.288;4.572;2023-08-06T04:28:54;3.65;;;2.88;;
45103;SDS011;30865;51.288;4.572;2023-08-06T04:31:19;3.80;;;1.50;;
45103;SDS011;30865;51.288;4.572;2023-08-06T04:33:44;3.75;;;1.73;;
45103;SDS011;30865;51.288;4.572;2023-08-06T04:36:11;2.67;;;1.60;;
45103;SDS011;30865;51.288;4.572;2023-08-06T04:38:37;3.55;;;2.17;;
45103;SDS011;30865;51.288;4.572;2023-08-06T04:41:03;2.20;;;1.75;;
45103;SDS011;30865;51.288;4.572;2023-08-06T04:43:29;3.08;;;1.67;;
45103;SDS011;30865;51.288;4.572;2023-08-06T04:45:55;4.97;;;2.13;;
45103;SDS011;30865;51.288;4.572;2023-08-06T04:48:21;3.42;;;2.10;;
45103;SDS011;30865;51.288;4.572;2023-08-06T04:50:47;4.47;;;2.55;;
45103;SDS011;30865;51.288;4.572;2023-08-06T04:53:14;3.28;;;2.30;;
45103;SDS011;30865;51.288;4.572;2023-08-06T04:55:40;2.78;;;1.90;;
45103;SDS011;30865;51.288;4.572;2023-08-06T04:58:06;5.57;;;2.13;;
45103;SDS011;30865;51.288;4.572;2023-08-06T05:00:32;7.30;;;1.83;;
45103;SDS011;30865;51.288;4.572;2023-08-06T05:03:01;5.22;;;1.50;;
45103;SDS011;30865;51.288;4.572;2023-08-06T05:05:28;2.92;;;2.20;;
45103;SDS011;30865;51.288;4.572;2023-08-06T05:07:54;2.72;;;1.40;;
45103;SDS011;30865;51.288;4.572;2023-08-06T05:10:21;1.77;;;1.30;;
45103;SDS011;30865;51.288;4.572;2023-08-06T05:12:46;1.77;;;1.30;;
45103;SDS011;30865;51.288;4.572;2023-08-06T05:15:12;1.63;;;1.20;;
45103;SDS011;30865;51.288;4.572;2023-08-06T05:17:37;3.42;;;1.38;;
45103;SDS011;30865;51.288;4.572;2023-08-06T05:20:03;4.20;;;1.20;;
45103;SDS011;30865;51.288;4.572;2023-08-06T05:22:29;4.63;;;1.48;;
45103;SDS011;30865;51.288;4.572;2023-08-06T05:24:54;2.88;;;1.65;;
45103;SDS011;30865;51.288;4.572;2023-08-06T05:27:20;1.55;;;1.08;;
45103;SDS011;30865;51.288;4.572;2023-08-06T05:29:45;1.20;;;1.02;;
45103;SDS011;30865;51.288;4.572;2023-08-06T05:32:13;2.95;;;1.00;;
45103;SDS011;30865;51.288;4.572;2023-08-06T05:34:38;2.67;;;1.25;;
45103;SDS011;30865;51.288;4.572;2023-08-06T05:37:04;3.80;;;1.60;;
45103;SDS011;30865;51.288;4.572;2023-08-06T05:39:30;2.78;;;1.00;;
45103;SDS011;30865;51.288;4.572;2023-08-06T05:41:55;1.77;;;1.00;;
45103;SDS011;30865;51.288;4.572;2023-08-06T05:44:21;1.50;;;1.02;;
45103;SDS011;30865;51.288;4.572;2023-08-06T05:46:48;1.52;;;1.00;;
45103;SDS011;30865;51.288;4.572;2023-08-06T05:49:14;1.40;;;1.00;;
45103;SDS011;30865;51.288;4.572;2023-08-06T05:51:40;2.60;;;0.82;;
45103;SDS011;30865;51.288;4.572;2023-08-06T05:54:06;2.28;;;0.85;;
45103;SDS011;30865;51.288;4.572;2023-08-06T05:56:32;1.58;;;0.65;;
45103;SDS011;30865;51.288;4.572;2023-08-06T05:58:57;3.33;;;0.57;;
45103;SDS011;30865;51.288;4.572;2023-08-06T06:01:24;1.15;;;0.70;;
45103;SDS011;30865;51.288;4.572;2023-08-06T06:03:50;1.40;;;0.52;;
45103;SDS011;30865;51.288;4.572;2023-08-06T06:06:16;1.58;;;0.63;;
45103;SDS011;30865;51.288;4.572;2023-08-06T06:08:43;1.35;;;0.60;;
45103;SDS011;30865;51.288;4.572;2023-08-06T06:11:09;3.47;;;0.90;;
45103;SDS011;30865;51.288;4.572;2023-08-06T06:13:34;0.68;;;0.68;;
45103;SDS011;30865;51.288;4.572;2023-08-06T06:16:00;2.95;;;0.88;;
45103;SDS011;30865;51.288;4.572;2023-08-06T06:18:25;0.40;;;0.40;;
45103;SDS011;30865;51.288;4.572;2023-08-06T06:20:51;1.25;;;0.68;;
45103;SDS011;30865;51.288;4.572;2023-08-06T06:23:16;4.68;;;0.60;;
45103;SDS011;30865;51.288;4.572;2023-08-06T06:25:48;3.10;;;0.73;;
45103;SDS011;30865;51.288;4.572;2023-08-06T06:28:16;0.88;;;0.50;;
45103;SDS011;30865;51.288;4.572;2023-08-06T06:30:42;1.98;;;0.32;;
45103;SDS011;30865;51.288;4.572;2023-08-06T06:33:08;0.75;;;0.40;;
45103;SDS011;30865;51.288;4.572;2023-08-06T06:35:33;0.73;;;0.50;;
45103;SDS011;30865;51.288;4.572;2023-08-06T06:37:59;0.88;;;0.50;;
45103;SDS011;30865;51.288;4.572;2023-08-06T06:40:25;3.05;;;0.45;;
45103;SDS011;30865;51.288;4.572;2023-08-06T06:42:50;0.55;;;0.35;;
45103;SDS011;30865;51.288;4.572;2023-08-06T06:45:16;0.40;;;0.20;;
45103;SDS011;30865;51.288;4.572;2023-08-06T06:47:41;2.35;;;0.80;;
45103;SDS011;30865;51.288;4.572;2023-08-06T06:50:07;2.20;;;0.40;;
45103;SDS011;30865;51.288;4.572;2023-08-06T06:52:33;1.80;;;0.60;;
45103;SDS011;30865;51.288;4.572;2023-08-06T06:54:59;0.80;;;0.40;;
45103;SDS011;30865;51.288;4.572;2023-08-06T06:57:25;2.95;;;1.45;;
45103;SDS011;30865;51.288;4.572;2023-08-06T06:59:50;1.75;;;0.70;;
45103;SDS011;30865;51.288;4.572;2023-08-06T07:02:16;0.70;;;0.57;;
45103;SDS011;30865;51.288;4.572;2023-08-06T07:04:41;0.82;;;0.50;;
45103;SDS011;30865;51.288;4.572;2023-08-06T07:07:07;0.32;;;0.30;;
45103;SDS011;30865;51.288;4.572;2023-08-06T07:09:32;0.55;;;0.30;;
45103;SDS011;30865;51.288;4.572;2023-08-06T07:11:58;0.98;;;0.43;;
45103;SDS011;30865;51.288;4.572;2023-08-06T07:14:25;1.55;;;0.20;;
45103;SDS011;30865;51.288;4.572;2023-08-06T07:16:51;0.40;;;0.40;;
45103;SDS011;30865;51.288;4.572;2023-08-06T07:19:16;0.55;;;0.40;;
45103;SDS011;30865;51.288;4.572;2023-08-06T07:21:42;2.25;;;0.70;;
45103;SDS011;30865;51.288;4.572;2023-08-06T07:24:07;1.30;;;0.43;;
45103;SDS011;30865;51.288;4.572;2023-08-06T07:26:33;0.30;;;0.30;;
45103;SDS011;30865;51.288;4.572;2023-08-06T07:28:58;0.63;;;0.45;;
45103;SDS011;30865;51.288;4.572;2023-08-06T07:31:24;0.40;;;0.20;;
45103;SDS011;30865;51.288;4.572;2023-08-06T07:33:49;0.30;;;0.30;;
45103;SDS011;30865;51.288;4.572;2023-08-06T07:36:15;0.22;;;0.22;;
45103;SDS011;30865;51.288;4.572;2023-08-06T07:38:40;0.52;;;0.32;;
45103;SDS011;30865;51.288;4.572;2023-08-06T07:41:06;0.40;;;0.32;;
45103;SDS011;30865;51.288;4.572;2023-08-06T07:43:31;0.50;;;0.40;;
45103;SDS011;30865;51.288;4.572;2023-08-06T07:45:58;0.40;;;0.22;;
45103;SDS011;30865;51.288;4.572;2023-08-06T07:48:25;0.10;;;0.10;;
45103;SDS011;30865;51.288;4.572;2023-08-06T07:50:51;1.23;;;0.20;;
45103;SDS011;30865;51.288;4.572;2023-08-06T07:53:19;0.25;;;0.10;;
45103;SDS011;30865;51.288;4.572;2023-08-06T07:55:47;0.28;;;0.10;;
45103;SDS011;30865;51.288;4.572;2023-08-06T07:58:14;1.08;;;0.28;;
45103;SDS011;30865;51.288;4.572;2023-08-06T08:00:40;1.35;;;0.28;;
45103;SDS011;30865;51.288;4.572;2023-08-06T08:03:07;0.00;;;0.00;;
45103;SDS011;30865;51.288;4.572;2023-08-06T08:05:33;0.43;;;0.20;;
45103;SDS011;30865;51.288;4.572;2023-08-06T08:07:58;1.95;;;0.15;;
45103;SDS011;30865;51.288;4.572;2023-08-06T08:10:23;0.08;;;0.08;;
45103;SDS011;30865;51.288;4.572;2023-08-06T08:12:49;0.00;;;0.00;;
45103;SDS011;30865;51.288;4.572;2023-08-06T08:15:14;0.08;;;0.08;;
45103;SDS011;30865;51.288;4.572;2023-08-06T08:17:40;0.00;;;0.00;;
45103;SDS011;30865;51.288;4.572;2023-08-06T08:20:06;0.00;;;0.00;;
45103;SDS011;30865;51.288;4.572;2023-08-06T08:22:31;0.30;;;0.10;;
45103;SDS011;30865;51.288;4.572;2023-08-06T08:24:57;0.00;;;0.00;;
45103;SDS011;30865;51.288;4.572;2023-08-06T08:27:22;1.17;;;0.00;;
45103;SDS011;30865;51.288;4.572;2023-08-06T08:29:48;0.40;;;0.20;;
45103;SDS011;30865;51.288;4.572;2023-08-06T08:32:13;0.30;;;0.03;;
45103;SDS011;30865;51.288;4.572;2023-08-06T08:34:39;0.15;;;0.00;;
45103;SDS011;30865;51.288;4.572;2023-08-06T08:37:05;0.10;;;0.10;;
45103;SDS011;30865;51.288;4.572;2023-08-06T08:39:31;0.10;;;0.00;;
45103;SDS011;30865;51.288;4.572;2023-08-06T08:41:56;0.20;;;0.00;;
45103;SDS011;30865;51.288;4.572;2023-08-06T08:44:22;0.00;;;0.00;;
45103;SDS011;30865;51.288;4.572;2023-08-06T08:46:49;0.20;;;0.10;;
45103;SDS011;30865;51.288;4.572;2023-08-06T08:49:15;0.90;;;0.10;;
45103;SDS011;30865;51.288;4.572;2023-08-06T08:51:42;0.03;;;0.03;;
45103;SDS011;30865;51.288;4.572;2023-08-06T08:54:10;0.10;;;0.10;;
45103;SDS011;30865;51.288;4.572;2023-08-06T08:56:38;0.10;;;0.08;;
45103;SDS011;30865;51.288;4.572;2023-08-06T08:59:03;0.00;;;0.00;;
45103;SDS011;30865;51.288;4.572;2023-08-06T09:01:29;0.00;;;0.00;;
45103;SDS011;30865;51.288;4.572;2023-08-06T09:03:55;0.00;;;0.00;;
45103;SDS011;30865;51.288;4.572;2023-08-06T09:06:21;0.00;;;0.00;;
45103;SDS011;30865;51.288;4.572;2023-08-06T09:08:51;0.00;;;0.00;;
45103;SDS011;30865;51.288;4.572;2023-08-06T09:11:29;0.28;;;0.10;;
45103;SDS011;30865;51.288;4.572;2023-08-06T09:14:04;0.25;;;0.10;;
45103;SDS011;30865;51.288;4.572;2023-08-06T09:16:32;0.00;;;0.00;;
45103;SDS011;30865;51.288;4.572;2023-08-06T09:19:06;0.13;;;0.08;;
45103;SDS011;30865;51.288;4.572;2023-08-06T09:21:37;0.00;;;0.00;;
45103;SDS011;30865;51.288;4.572;2023-08-06T09:24:10;0.10;;;0.00;;
45103;SDS011;30865;51.288;4.572;2023-08-06T09:26:37;0.03;;;0.03;;
45103;SDS011;30865;51.288;4.572;2023-08-06T09:29:07;0.03;;;0.03;;
45103;SDS011;30865;51.288;4.572;2023-08-06T09:34:16;0.00;;;0.00;;
45103;SDS011;30865;51.288;4.572;2023-08-06T09:36:51;0.03;;;0.00;;
45103;SDS011;30865;51.288;4.572;2023-08-06T09:39:22;0.00;;;0.00;;
45103;SDS011;30865;51.288;4.572;2023-08-06T09:41:55;0.00;;;0.00;;
45103;SDS011;30865;51.288;4.572;2023-08-06T09:44:21;0.07;;;0.00;;
45103;SDS011;30865;51.288;4.572;2023-08-06T09:46:51;0.00;;;0.00;;
45103;SDS011;30865;51.288;4.572;2023-08-06T09:49:18;0.00;;;0.00;;
45103;SDS011;30865;51.288;4.572;2023-08-06T09:51:45;0.00;;;0.00;;
45103;SDS011;30865;51.288;4.572;2023-08-06T09:54:15;0.00;;;0.00;;
45103;SDS011;30865;51.288;4.572;2023-08-06T09:56:41;0.08;;;0.00;;
45103;SDS011;30865;51.288;4.572;2023-08-06T09:59:07;0.00;;;0.00;;
45103;SDS011;30865;51.288;4.572;2023-08-06T10:01:34;0.50;;;0.30;;
45103;SDS011;30865;51.288;4.572;2023-08-06T10:04:00;0.00;;;0.00;;
45103;SDS011;30865;51.288;4.572;2023-08-06T10:06:28;0.00;;;0.00;;
45103;SDS011;30865;51.288;4.572;2023-08-06T10:08:54;0.30;;;0.13;;
45103;SDS011;30865;51.288;4.572;2023-08-06T10:11:21;0.73;;;0.30;;
45103;SDS011;30865;51.288;4.572;2023-08-06T10:13:51;0.00;;;0.00;;
45103;SDS011;30865;51.288;4.572;2023-08-06T10:16:34;0.10;;;0.10;;
45103;SDS011;30865;51.288;4.572;2023-08-06T10:19:02;0.10;;;0.10;;
45103;SDS011;30865;51.288;4.572;2023-08-06T10:21:33;0.10;;;0.00;;
45103;SDS011;30865;51.288;4.572;2023-08-06T10:23:58;0.00;;;0.00;;
45103;SDS011;30865;51.288;4.572;2023-08-06T10:26:27;0.08;;;0.00;;
45103;SDS011;30865;51.288;4.572;2023-08-06T10:28:54;0.08;;;0.00;;
45103;SDS011;30865;51.288;4.572;2023-08-06T10:31:20;0.28;;;0.00;;
45103;SDS011;30865;51.288;4.572;2023-08-06T10:34:05;0.08;;;0.08;;
45103;SDS011;30865;51.288;4.572;2023-08-06T10:36:32;0.52;;;0.45;;
45103;SDS011;30865;51.288;4.572;2023-08-06T10:38:58;0.25;;;0.13;;
45103;SDS011;30865;51.288;4.572;2023-08-06T10:41:27;0.95;;;0.20;;
45103;SDS011;30865;51.288;4.572;2023-08-06T10:46:35;0.10;;;0.00;;
45103;SDS011;30865;51.288;4.572;2023-08-06T10:49:02;0.10;;;0.10;;
45103;SDS011;30865;51.288;4.572;2023-08-06T10:51:28;0.00;;;0.00;;
45103;SDS011;30865;51.288;4.572;2023-08-06T10:53:54;0.90;;;0.10;;
45103;SDS011;30865;51.288;4.572;2023-08-06T10:56:21;0.20;;;0.15;;
45103;SDS011;30865;51.288;4.572;2023-08-06T10:58:48;0.08;;;0.08;;
45103;SDS011;30865;51.288;4.572;2023-08-06T11:01:15;0.30;;;0.13;;
45103;SDS011;30865;51.288;4.572;2023-08-06T11:03:44;0.40;;;0.10;;
45103;SDS011;30865;51.288;4.572;2023-08-06T11:06:10;0.63;;;0.63;;
45103;SDS011;30865;51.288;4.572;2023-08-06T11:08:46;1.85;;;0.13;;
45103;SDS011;30865;51.288;4.572;2023-08-06T11:11:14;1.55;;;0.10;;
45103;SDS011;30865;51.288;4.572;2023-08-06T11:13:44;0.03;;;0.00;;
45103;SDS011;30865;51.288;4.572;2023-08-06T11:16:15;0.55;;;0.10;;
45103;SDS011;30865;51.288;4.572;2023-08-06T11:18:45;0.10;;;0.10;;
45103;SDS011;30865;51.288;4.572;2023-08-06T11:21:12;0.10;;;0.10;;
45103;SDS011;30865;51.288;4.572;2023-08-06T11:23:38;0.00;;;0.00;;
45103;SDS011;30865;51.288;4.572;2023-08-06T11:26:04;1.17;;;0.10;;
45103;SDS011;30865;51.288;4.572;2023-08-06T11:28:30;0.22;;;0.20;;
45103;SDS011;30865;51.288;4.572;2023-08-06T11:30:55;0.10;;;0.10;;
45103;SDS011;30865;51.288;4.572;2023-08-06T11:33:23;0.17;;;0.17;;
45103;SDS011;30865;51.288;4.572;2023-08-06T11:35:52;0.10;;;0.05;;
45103;SDS011;30865;51.288;4.572;2023-08-06T11:38:19;0.30;;;0.20;;
45103;SDS011;30865;51.288;4.572;2023-08-06T11:40:45;0.50;;;0.30;;
45103;SDS011;30865;51.288;4.572;2023-08-06T11:43:12;0.30;;;0.20;;
45103;SDS011;30865;51.288;4.572;2023-08-06T11:45:38;1.02;;;0.45;;
45103;SDS011;30865;51.288;4.572;2023-08-06T11:48:03;0.65;;;0.65;;
45103;SDS011;30865;51.288;4.572;2023-08-06T11:50:30;0.40;;;0.40;;
45103;SDS011;30865;51.288;4.572;2023-08-06T11:52:56;0.30;;;0.25;;
45103;SDS011;30865;51.288;4.572;2023-08-06T11:55:23;0.88;;;0.50;;
45103;SDS011;30865;51.288;4.572;2023-08-06T11:57:49;0.55;;;0.35;;
45103;SDS011;30865;51.288;4.572;2023-08-06T12:00:16;0.68;;;0.50;;
45103;SDS011;30865;51.288;4.572;2023-08-06T12:02:47;3.75;;;0.43;;
45103;SDS011;30865;51.288;4.572;2023-08-06T12:05:14;2.00;;;0.52;;
45103;SDS011;30865;51.288;4.572;2023-08-06T12:07:42;0.70;;;0.50;;
45103;SDS011;30865;51.288;4.572;2023-08-06T12:10:10;1.08;;;0.40;;
45103;SDS011;30865;51.288;4.572;2023-08-06T12:12:36;0.70;;;0.60;;
45103;SDS011;30865;51.288;4.572;2023-08-06T12:15:02;0.57;;;0.45;;
45103;SDS011;30865;51.288;4.572;2023-08-06T12:17:28;0.40;;;0.40;;
45103;SDS011;30865;51.288;4.572;2023-08-06T12:19:54;0.40;;;0.40;;
45103;SDS011;30865;51.288;4.572;2023-08-06T12:22:20;1.05;;;0.60;;
45103;SDS011;30865;51.288;4.572;2023-08-06T12:24:45;0.82;;;0.70;;
45103;SDS011;30865;51.288;4.572;2023-08-06T12:27:12;1.20;;;0.35;;
45103;SDS011;30865;51.288;4.572;2023-08-06T12:29:41;2.08;;;0.73;;
45103;SDS011;30865;51.288;4.572;2023-08-06T12:32:10;1.10;;;0.60;;
45103;SDS011;30865;51.288;4.572;2023-08-06T12:34:37;0.90;;;0.63;;
45103;SDS011;30865;51.288;4.572;2023-08-06T12:37:04;1.52;;;0.60;;
45103;SDS011;30865;51.288;4.572;2023-08-06T12:39:29;0.75;;;0.60;;
45103;SDS011;30865;51.288;4.572;2023-08-06T12:41:56;0.50;;;0.50;;
45103;SDS011;30865;51.288;4.572;2023-08-06T12:44:22;2.78;;;0.50;;
45103;SDS011;30865;51.288;4.572;2023-08-06T12:46:49;1.15;;;0.60;;
45103;SDS011;30865;51.288;4.572;2023-08-06T12:49:15;1.67;;;0.70;;
45103;SDS011;30865;51.288;4.572;2023-08-06T12:51:40;2.47;;;0.70;;
45103;SDS011;30865;51.288;4.572;2023-08-06T12:54:06;0.98;;;0.50;;
45103;SDS011;30865;51.288;4.572;2023-08-06T12:56:31;0.85;;;0.50;;
45103;SDS011;30865;51.288;4.572;2023-08-06T12:58:56;0.43;;;0.38;;
45103;SDS011;30865;51.288;4.572;2023-08-06T13:01:22;0.47;;;0.38;;
45103;SDS011;30865;51.288;4.572;2023-08-06T13:03:47;1.08;;;0.45;;
45103;SDS011;30865;51.288;4.572;2023-08-06T13:06:13;0.80;;;0.38;;
45103;SDS011;30865;51.288;4.572;2023-08-06T13:08:38;0.32;;;0.25;;
45103;SDS011;30865;51.288;4.572;2023-08-06T13:11:04;0.80;;;0.40;;
45103;SDS011;30865;51.288;4.572;2023-08-06T13:13:30;0.80;;;0.45;;
45103;SDS011;30865;51.288;4.572;2023-08-06T13:15:55;0.70;;;0.40;;
45103;SDS011;30865;51.288;4.572;2023-08-06T13:18:21;0.88;;;0.70;;
45103;SDS011;30865;51.288;4.572;2023-08-06T13:20:46;1.85;;;0.50;;
45103;SDS011;30865;51.288;4.572;2023-08-06T13:23:14;1.40;;;0.52;;
45103;SDS011;30865;51.288;4.572;2023-08-06T13:25:41;0.57;;;0.50;;
45103;SDS011;30865;51.288;4.572;2023-08-06T13:28:07;1.10;;;0.47;;
45103;SDS011;30865;51.288;4.572;2023-08-06T13:30:33;0.35;;;0.25;;
45103;SDS011;30865;51.288;4.572;2023-08-06T13:33:00;1.20;;;0.50;;
45103;SDS011;30865;51.288;4.572;2023-08-06T13:35:26;2.05;;;0.43;;
45103;SDS011;30865;51.288;4.572;2023-08-06T13:37:52;0.45;;;0.45;;
45103;SDS011;30865;51.288;4.572;2023-08-06T13:40:17;0.98;;;0.70;;
45103;SDS011;30865;51.288;4.572;2023-08-06T13:42:43;0.40;;;0.40;;
45103;SDS011;30865;51.288;4.572;2023-08-06T13:45:09;1.67;;;0.50;;
45103;SDS011;30865;51.288;4.572;2023-08-06T13:47:34;0.90;;;0.60;;
45103;SDS011;30865;51.288;4.572;2023-08-06T13:50:00;0.60;;;0.35;;
45103;SDS011;30865;51.288;4.572;2023-08-06T13:52:29;1.77;;;0.57;;
45103;SDS011;30865;51.288;4.572;2023-08-06T13:54:55;1.45;;;0.40;;
45103;SDS011;30865;51.288;4.572;2023-08-06T13:57:20;0.40;;;0.38;;
45103;SDS011;30865;51.288;4.572;2023-08-06T13:59:46;0.88;;;0.45;;
45103;SDS011;30865;51.288;4.572;2023-08-06T14:02:11;0.75;;;0.75;;
45103;SDS011;30865;51.288;4.572;2023-08-06T14:04:37;0.75;;;0.55;;
45103;SDS011;30865;51.288;4.572;2023-08-06T14:07:03;0.20;;;0.13;;
45103;SDS011;30865;51.288;4.572;2023-08-06T14:09:29;0.40;;;0.40;;
45103;SDS011;30865;51.288;4.572;2023-08-06T14:11:54;0.30;;;0.30;;
45103;SDS011;30865;51.288;4.572;2023-08-06T14:14:20;0.50;;;0.28;;
45103;SDS011;30865;51.288;4.572;2023-08-06T14:16:51;1.48;;;0.75;;
45103;SDS011;30865;51.288;4.572;2023-08-06T14:19:19;1.75;;;0.30;;
45103;SDS011;30865;51.288;4.572;2023-08-06T14:21:45;1.92;;;0.30;;
45103;SDS011;30865;51.288;4.572;2023-08-06T14:24:11;1.23;;;0.75;;
45103;SDS011;30865;51.288;4.572;2023-08-06T14:26:36;0.98;;;0.50;;
45103;SDS011;30865;51.288;4.572;2023-08-06T14:29:02;0.65;;;0.50;;
45103;SDS011;30865;51.288;4.572;2023-08-06T14:31:28;1.75;;;0.60;;
45103;SDS011;30865;51.288;4.572;2023-08-06T14:33:53;0.55;;;0.40;;
45103;SDS011;30865;51.288;4.572;2023-08-06T14:36:19;0.50;;;0.50;;
45103;SDS011;30865;51.288;4.572;2023-08-06T14:38:44;0.43;;;0.40;;
45103;SDS011;30865;51.288;4.572;2023-08-06T14:41:10;2.08;;;0.70;;
45103;SDS011;30865;51.288;4.572;2023-08-06T14:43:36;0.40;;;0.40;;
45103;SDS011;30865;51.288;4.572;2023-08-06T14:46:02;0.75;;;0.40;;
45103;SDS011;30865;51.288;4.572;2023-08-06T14:48:28;0.28;;;0.28;;
45103;SDS011;30865;51.288;4.572;2023-08-06T14:50:55;0.30;;;0.30;;